We konden geen weer-waarchuwingen ophalen. Ga rechtstreeks naar de Meteoalarm site : www.meteoalarm.eu en controleer daar .


Onweer radar Meer informatie blitzortung!


Regen radar Meer informatie rain snow radar



METAR rapporten vliegvelden

   
EHGR - Dalem
Gewijzigd: 06-02-2023 23:08
Nevel, Licht bewolkt  
Nevel, Licht bewolkt  
   Wind: Oosten 1.5 m/s
Wind: Oosten 1.5 m/s
Temperatuur: -1°C
Voelt als: -3°C
Dauwpunt: -2°C
Vochtigheid: 93%
Barometer: 1039 hPa
Bewolking: Licht bewolkt
Zicht: 9 km
Bewolking: Licht bewolkt 2200 ft
EHGR 062208Z AUTO 09003KT 9000 BR FEW022 M01/M02 Q1039 BLU
EHGR - Roosendaal
Gewijzigd: 06-02-2023 23:08
Nevel, Licht bewolkt  
Nevel, Licht bewolkt  
   Wind: Oosten 1.5 m/s
Wind: Oosten 1.5 m/s
Temperatuur: -1°C
Voelt als: -3°C
Dauwpunt: -2°C
Vochtigheid: 93%
Barometer: 1039 hPa
Bewolking: Licht bewolkt
Zicht: 9 km
Bewolking: Licht bewolkt 2200 ft
EHGR 062208Z AUTO 09003KT 9000 BR FEW022 M01/M02 Q1039 BLU
EHRD - Rotterdam
Gewijzigd: 06-02-2023 22:55
Licht bewolkt  
Licht bewolkt  
   Wind: NNO 0.5 m/s
Wind: NNO 0.5 m/s
Temperatuur: 0°C
Dauwpunt: 0°C
Vochtigheid: 100%
Barometer: 1040 hPa
Bewolking: Licht bewolkt
Zicht: 6 km
Bewolking: Licht bewolkt 2800 ft
EHRD 062155Z AUTO 03001KT 6000 FEW028 M00/M00 Q1040 NOSIG
EHLW - Urk
Gewijzigd: 06-02-2023 23:13
Nevel, Helder  
Nevel, Helder  
   Wind: ZO 1.5 m/s
Wind: ZO 1.5 m/s
Temperatuur: -1°C
Voelt als: -3°C
Dauwpunt: -1°C
Vochtigheid: 100%
Barometer: 1040 hPa
Bewolking: Helder
Zicht: 3 km
Bewolking: Helder
EHLW 062213Z AUTO 13003KT 080V150 3200 BR NCD M01/M01 Q1040 YLO
EHDL - Veenendaal
Gewijzigd: 06-02-2023 22:55
Grotendeels bewolkt  
Grotendeels bewolkt  
   Wind: OZO 1.5 m/s
Wind: OZO 1.5 m/s
Temperatuur: -1°C
Voelt als: -3°C
Dauwpunt: -1°C
Vochtigheid: 100%
Barometer: 1039 hPa
Bewolking: Grotendeels bewolkt
Zicht: meer dan 10 km
Bewolking: Grotendeels bewolkt 2200 ft
EHDL 062155Z AUTO 11003KT 020V130 9999 BKN022 M01/M01 Q1039 WHT
EHRD - Vianen
Gewijzigd: 06-02-2023 22:55
Licht bewolkt  
Licht bewolkt  
   Wind: NNO 0.5 m/s
Wind: NNO 0.5 m/s
Temperatuur: 0°C
Dauwpunt: 0°C
Vochtigheid: 100%
Barometer: 1040 hPa
Bewolking: Licht bewolkt
Zicht: 6 km
Bewolking: Licht bewolkt 2800 ft
EHRD 062155Z AUTO 03001KT 6000 FEW028 M00/M00 Q1040 NOSIG

Script ontwikkeld door  Saratoga-weather.org Aangepast voor de template door  Weerstation Leuven

U vindt ons ook hier:

Het Weer Aktueel

UK Metoffice

European Weather Network

WeatherCloud

Weather Underground

AWEKAS

Citizen Weather Observer Program (CWOP)

HAMweather, WeatherForYou, PWS Weather

Apparatuur in gebruik:

Weerstation
Davis VP2 weatherstation

Weerprogramma
Meteobridge

Weercomputer
Asus WL_330N3G

Davis VP2 weatherstation

Meteobridge

Asus WL_330N3G